Squall — ZCIF2 — position and weather

sailwx.info

Track history (hours):
 
Tides and Currents Weather Stations Pressure Air Temp Water Temp Dewpoint Dewpoint Depression Visibility Wind Speed Wind Dir Waves Ship Positions

Squall

Last reported at 2014-Sep-21 16:24 UTC. Time now 2014-Sep-22 00:11 UTC.
Position N 43°49' E 007°47'.

Length 55 m; draft 5 m.

Type: Sailing vessel. MMSI: 319811000.

Date/timePositionNaut miles runAvg speedWind from/ knotsBaromVisibWave heightAir tempDewpointWater temp
2014-Sep-21 16:24N 43°49' E 007°47'  
2014-Sep-14 13:27N 43°54' E 008°14'1111.9
2014-Sep-14 12:30N 43°59' E 008°28'1111.2
2014-Sep-14 11:34N 44°04' E 008°41'1111.1
2014-Sep-14 10:33N 44°10' E 008°54'1110.7
2014-Sep-14 09:30N 44°16' E 009°08'4 2.3
2014-Sep-14 07:32N 44°18' E 009°13'0 0.0
2014-Sep-14 04:17N 44°18' E 009°13'0 0.0
2014-Sep-14 03:23N 44°18' E 009°13'0 0.0
2014-Sep-14 02:29N 44°18' E 009°13'0 0.0
2014-Sep-13 21:05N 44°18' E 009°13'0 0.0
2014-Sep-13 20:23N 44°18' E 009°13'0 0.0
2014-Sep-13 19:32N 44°18' E 009°13'0 0.0
2014-Sep-13 18:23N 44°18' E 009°13'0 0.0
2014-Sep-13 17:23N 44°18' E 009°13'0 0.1
2014-Sep-13 16:26N 44°18' E 009°13'1 1.6
2014-Sep-13 15:34N 44°17' E 009°14'1 1.1
2014-Sep-13 14:33N 44°17' E 009°13'2 1.5
2014-Sep-13 13:33N 44°17' E 009°15'2 2.4
2014-Sep-13 12:32N 44°18' E 009°13'0 0.0
2014-Sep-13 11:32N 44°18' E 009°13'0 0.0
2014-Sep-13 10:32N 44°18' E 009°13'0 0.0
2014-Sep-13 09:23N 44°18' E 009°13'0 0.0
2014-Sep-13 08:26N 44°18' E 009°13'0 0.0
2014-Sep-13 07:32N 44°18' E 009°13'0 0.0
2014-Sep-13 06:29N 44°18' E 009°13'0 0.0
2014-Sep-13 05:32N 44°18' E 009°13'0 0.0
2014-Sep-13 04:29N 44°18' E 009°13'0 0.0
2014-Sep-13 03:32N 44°18' E 009°13'0 0.0
2014-Sep-13 02:26N 44°18' E 009°13'0 0.0
2014-Sep-13 01:29N 44°18' E 009°13'0 0.0
2014-Sep-13 00:32N 44°18' E 009°13'0 0.0
2014-Sep-12 23:26N 44°18' E 009°13'0 0.0
2014-Sep-12 22:29N 44°18' E 009°13'0 0.0
2014-Sep-12 21:32N 44°18' E 009°13'0 0.0
2014-Sep-12 20:32N 44°18' E 009°13'0 0.0
2014-Sep-12 19:32N 44°18' E 009°13'0 0.0
2014-Sep-12 18:32N 44°18' E 009°13'0 0.0
2014-Sep-12 17:32N 44°18' E 009°13'0 0.0
2014-Sep-12 16:32N 44°18' E 009°13'0 0.0
2014-Sep-12 15:32N 44°18' E 009°13'0 0.0
2014-Sep-12 14:32N 44°18' E 009°13'0 0.0
2014-Sep-12 13:32N 44°18' E 009°13'0 0.0
2014-Sep-12 12:32N 44°18' E 009°13'0 0.0
2014-Sep-12 11:32N 44°18' E 009°13'0 0.0
2014-Sep-12 10:32N 44°18' E 009°13'0 0.0
2014-Sep-12 09:32N 44°18' E 009°13'0 0.0
2014-Sep-12 08:32N 44°18' E 009°13'0 0.0
2014-Sep-12 07:32N 44°18' E 009°13'0 0.0
2014-Sep-12 06:32N 44°18' E 009°13'0 0.0
2014-Sep-12 05:29N 44°18' E 009°13'0 0.0
2014-Sep-12 04:32N 44°18' E 009°13'0 0.0
2014-Sep-12 03:32N 44°18' E 009°13'0 0.0
2014-Sep-12 02:32N 44°18' E 009°13'0 0.0
2014-Sep-12 01:32N 44°18' E 009°13'0 0.0
2014-Sep-12 00:31N 44°18' E 009°13'0 0.0
2014-Sep-11 23:31N 44°18' E 009°13'0 0.0
2014-Sep-11 22:31N 44°18' E 009°13'0 0.0
2014-Sep-11 21:31N 44°18' E 009°13'0 0.0
2014-Sep-11 20:28N 44°18' E 009°13'0 0.0
2014-Sep-11 19:33N 44°18' E 009°13'0 0.0
2014-Sep-11 18:33N 44°18' E 009°13'0 0.0
2014-Sep-11 17:33N 44°18' E 009°13'0 0.0
2014-Sep-11 16:33N 44°18' E 009°13'  
Track history (hours):
 
Tides and Currents Weather Stations Pressure Air Temp Water Temp Dewpoint Dewpoint Depression Visibility Wind Speed Wind Dir Waves Ship Positions

Squall

Last reported at 2014-Sep-21 16:24 UTC. Time now 2014-Sep-22 00:11 UTC.
Position N 43°49' E 007°47'.

Length 55 m; draft 5 m.

Type: Sailing vessel. MMSI: 319811000.

Date/timePositionNaut miles runAvg speedWind from/ knotsBaromVisibWave heightAir tempDewpointWater temp
2014-Sep-21 16:24N 43°49' E 007°47'  
2014-Sep-14 13:27N 43°54' E 008°14'1111.9
2014-Sep-14 12:30N 43°59' E 008°28'1111.2
2014-Sep-14 11:34N 44°04' E 008°41'1111.1
2014-Sep-14 10:33N 44°10' E 008°54'1110.7
2014-Sep-14 09:30N 44°16' E 009°08'4 2.3
2014-Sep-14 07:32N 44°18' E 009°13'0 0.0
2014-Sep-14 04:17N 44°18' E 009°13'0 0.0
2014-Sep-14 03:23N 44°18' E 009°13'0 0.0
2014-Sep-14 02:29N 44°18' E 009°13'0 0.0
2014-Sep-13 21:05N 44°18' E 009°13'0 0.0
2014-Sep-13 20:23N 44°18' E 009°13'0 0.0
2014-Sep-13 19:32N 44°18' E 009°13'0 0.0
2014-Sep-13 18:23N 44°18' E 009°13'0 0.0
2014-Sep-13 17:23N 44°18' E 009°13'0 0.1
2014-Sep-13 16:26N 44°18' E 009°13'1 1.6
2014-Sep-13 15:34N 44°17' E 009°14'1 1.1
2014-Sep-13 14:33N 44°17' E 009°13'2 1.5
2014-Sep-13 13:33N 44°17' E 009°15'2 2.4
2014-Sep-13 12:32N 44°18' E 009°13'0 0.0
2014-Sep-13 11:32N 44°18' E 009°13'0 0.0
2014-Sep-13 10:32N 44°18' E 009°13'0 0.0
2014-Sep-13 09:23N 44°18' E 009°13'0 0.0
2014-Sep-13 08:26N 44°18' E 009°13'0 0.0
2014-Sep-13 07:32N 44°18' E 009°13'0 0.0
2014-Sep-13 06:29N 44°18' E 009°13'0 0.0
2014-Sep-13 05:32N 44°18' E 009°13'0 0.0
2014-Sep-13 04:29N 44°18' E 009°13'0 0.0
2014-Sep-13 03:32N 44°18' E 009°13'0 0.0
2014-Sep-13 02:26N 44°18' E 009°13'0 0.0
2014-Sep-13 01:29N 44°18' E 009°13'0 0.0
2014-Sep-13 00:32N 44°18' E 009°13'0 0.0
2014-Sep-12 23:26N 44°18' E 009°13'0 0.0
2014-Sep-12 22:29N 44°18' E 009°13'0 0.0
2014-Sep-12 21:32N 44°18' E 009°13'0 0.0
2014-Sep-12 20:32N 44°18' E 009°13'0 0.0
2014-Sep-12 19:32N 44°18' E 009°13'0 0.0
2014-Sep-12 18:32N 44°18' E 009°13'0 0.0
2014-Sep-12 17:32N 44°18' E 009°13'0 0.0
2014-Sep-12 16:32N 44°18' E 009°13'0 0.0
2014-Sep-12 15:32N 44°18' E 009°13'0 0.0
2014-Sep-12 14:32N 44°18' E 009°13'0 0.0
2014-Sep-12 13:32N 44°18' E 009°13'0 0.0
2014-Sep-12 12:32N 44°18' E 009°13'0 0.0
2014-Sep-12 11:32N 44°18' E 009°13'0 0.0
2014-Sep-12 10:32N 44°18' E 009°13'0 0.0
2014-Sep-12 09:32N 44°18' E 009°13'0 0.0
2014-Sep-12 08:32N 44°18' E 009°13'0 0.0
2014-Sep-12 07:32N 44°18' E 009°13'0 0.0
2014-Sep-12 06:32N 44°18' E 009°13'0 0.0
2014-Sep-12 05:29N 44°18' E 009°13'0 0.0
2014-Sep-12 04:32N 44°18' E 009°13'0 0.0
2014-Sep-12 03:32N 44°18' E 009°13'0 0.0
2014-Sep-12 02:32N 44°18' E 009°13'0 0.0
2014-Sep-12 01:32N 44°18' E 009°13'0 0.0
2014-Sep-12 00:31N 44°18' E 009°13'0 0.0
2014-Sep-11 23:31N 44°18' E 009°13'0 0.0
2014-Sep-11 22:31N 44°18' E 009°13'0 0.0
2014-Sep-11 21:31N 44°18' E 009°13'0 0.0
2014-Sep-11 20:28N 44°18' E 009°13'0 0.0
2014-Sep-11 19:33N 44°18' E 009°13'0 0.0
2014-Sep-11 18:33N 44°18' E 009°13'0 0.0
2014-Sep-11 17:33N 44°18' E 009°13'0 0.0
2014-Sep-11 16:33N 44°18' E 009°13'  

Dump ship's entire track history